sensor_id;sensor_type;location;lat;lon;timestamp;pressure;altitude;pressure_sealevel;temperature;humidity
13661;BME280;6903;49.480;11.102;2022-09-01T00:02:08;98225.50;;;17.93;100.00
13661;BME280;6903;49.480;11.102;2022-09-01T00:04:36;98226.31;;;17.86;100.00
13661;BME280;6903;49.480;11.102;2022-09-01T00:07:07;98214.28;;;17.82;100.00
13661;BME280;6903;49.480;11.102;2022-09-01T00:09:33;98220.94;;;17.78;100.00
13661;BME280;6903;49.480;11.102;2022-09-01T00:11:59;98225.06;;;17.72;100.00
13661;BME280;6903;49.480;11.102;2022-09-01T00:14:28;98228.38;;;17.66;100.00
13661;BME280;6903;49.480;11.102;2022-09-01T00:16:54;98229.69;;;17.62;100.00
13661;BME280;6903;49.480;11.102;2022-09-01T00:19:21;98228.66;;;17.55;100.00
13661;BME280;6903;49.480;11.102;2022-09-01T00:21:46;98230.59;;;17.45;100.00
13661;BME280;6903;49.480;11.102;2022-09-01T00:24:13;98222.59;;;17.45;100.00
13661;BME280;6903;49.480;11.102;2022-09-01T00:26:40;98224.03;;;17.40;100.00
13661;BME280;6903;49.480;11.102;2022-09-01T00:29:06;98235.69;;;17.39;100.00
13661;BME280;6903;49.480;11.102;2022-09-01T00:31:33;98223.38;;;17.38;100.00
13661;BME280;6903;49.480;11.102;2022-09-01T00:33:59;98231.88;;;17.41;100.00
13661;BME280;6903;49.480;11.102;2022-09-01T00:36:25;98223.72;;;17.43;100.00
13661;BME280;6903;49.480;11.102;2022-09-01T00:38:50;98231.56;;;17.44;100.00
13661;BME280;6903;49.480;11.102;2022-09-01T00:41:19;98216.25;;;17.46;100.00
13661;BME280;6903;49.480;11.102;2022-09-01T00:43:59;98215.56;;;17.44;100.00
13661;BME280;6903;49.480;11.102;2022-09-01T00:46:28;98226.69;;;17.40;100.00
13661;BME280;6903;49.480;11.102;2022-09-01T00:49:09;98221.88;;;17.43;100.00
13661;BME280;6903;49.480;11.102;2022-09-01T00:51:37;98217.41;;;17.44;100.00
13661;BME280;6903;49.480;11.102;2022-09-01T00:54:04;98220.91;;;17.44;100.00
13661;BME280;6903;49.480;11.102;2022-09-01T00:56:31;98228.38;;;17.41;100.00
13661;BME280;6903;49.480;11.102;2022-09-01T00:58:59;98222.34;;;17.39;100.00
13661;BME280;6903;49.480;11.102;2022-09-01T01:01:24;98220.91;;;17.44;100.00
13661;BME280;6903;49.480;11.102;2022-09-01T01:03:50;98220.63;;;17.47;100.00
13661;BME280;6903;49.480;11.102;2022-09-01T01:06:16;98219.63;;;17.48;100.00
13661;BME280;6903;49.480;11.102;2022-09-01T01:08:46;98217.78;;;17.49;100.00
13661;BME280;6903;49.480;11.102;2022-09-01T01:11:23;98218.00;;;17.55;100.00
13661;BME280;6903;49.480;11.102;2022-09-01T01:13:57;98220.19;;;17.60;100.00
13661;BME280;6903;49.480;11.102;2022-09-01T01:16:25;98210.84;;;17.64;100.00
13661;BME280;6903;49.480;11.102;2022-09-01T01:18:51;98211.91;;;17.71;100.00
13661;BME280;6903;49.480;11.102;2022-09-01T01:21:19;98210.75;;;17.73;100.00
13661;BME280;6903;49.480;11.102;2022-09-01T01:24:20;98214.06;;;17.75;100.00
13661;BME280;6903;49.480;11.102;2022-09-01T01:26:46;98220.44;;;17.82;100.00
13661;BME280;6903;49.480;11.102;2022-09-01T01:29:12;98209.78;;;17.82;100.00
13661;BME280;6903;49.480;11.102;2022-09-01T01:31:37;98211.28;;;17.85;100.00
13661;BME280;6903;49.480;11.102;2022-09-01T01:34:03;98202.31;;;17.86;100.00
13661;BME280;6903;49.480;11.102;2022-09-01T01:36:34;98199.75;;;17.76;100.00
13661;BME280;6903;49.480;11.102;2022-09-01T01:39:07;98207.72;;;17.68;100.00
13661;BME280;6903;49.480;11.102;2022-09-01T01:41:34;98206.88;;;17.68;100.00
13661;BME280;6903;49.480;11.102;2022-09-01T01:44:01;98209.06;;;17.72;100.00
13661;BME280;6903;49.480;11.102;2022-09-01T01:46:29;98206.56;;;17.71;100.00
13661;BME280;6903;49.480;11.102;2022-09-01T01:48:54;98204.06;;;17.69;100.00
13661;BME280;6903;49.480;11.102;2022-09-01T01:51:21;98199.88;;;17.67;100.00
13661;BME280;6903;49.480;11.102;2022-09-01T01:53:53;98204.53;;;17.65;100.00
13661;BME280;6903;49.480;11.102;2022-09-01T01:56:19;98197.47;;;17.56;100.00
13661;BME280;6903;49.480;11.102;2022-09-01T01:58:47;98195.22;;;17.43;100.00
13661;BME280;6903;49.480;11.102;2022-09-01T02:01:13;98197.47;;;17.30;100.00
13661;BME280;6903;49.480;11.102;2022-09-01T02:03:41;98206.75;;;17.18;100.00
13661;BME280;6903;49.480;11.102;2022-09-01T02:06:08;98207.59;;;17.01;100.00
13661;BME280;6903;49.480;11.102;2022-09-01T02:08:37;98206.75;;;16.92;100.00
13661;BME280;6903;49.480;11.102;2022-09-01T02:11:04;98203.78;;;16.78;100.00
13661;BME280;6903;49.480;11.102;2022-09-01T02:13:30;98199.22;;;16.70;100.00
13661;BME280;6903;49.480;11.102;2022-09-01T02:15:59;98200.38;;;16.68;100.00
13661;BME280;6903;49.480;11.102;2022-09-01T02:18:28;98197.63;;;16.60;100.00
13661;BME280;6903;49.480;11.102;2022-09-01T02:20:55;98191.41;;;16.51;100.00
13661;BME280;6903;49.480;11.102;2022-09-01T02:23:23;98196.19;;;16.48;100.00
13661;BME280;6903;49.480;11.102;2022-09-01T02:25:53;98196.34;;;16.46;100.00
13661;BME280;6903;49.480;11.102;2022-09-01T02:28:20;98198.84;;;16.48;100.00
13661;BME280;6903;49.480;11.102;2022-09-01T02:30:49;98185.00;;;16.44;100.00
13661;BME280;6903;49.480;11.102;2022-09-01T02:33:17;98186.59;;;16.37;100.00
13661;BME280;6903;49.480;11.102;2022-09-01T02:35:56;98186.03;;;16.34;100.00
13661;BME280;6903;49.480;11.102;2022-09-01T02:38:22;98180.78;;;16.24;100.00
13661;BME280;6903;49.480;11.102;2022-09-01T02:40:50;98190.09;;;16.20;100.00
13661;BME280;6903;49.480;11.102;2022-09-01T02:43:18;98179.94;;;16.06;100.00
13661;BME280;6903;49.480;11.102;2022-09-01T02:45:48;98185.41;;;16.05;100.00
13661;BME280;6903;49.480;11.102;2022-09-01T02:48:33;98187.03;;;15.98;100.00
13661;BME280;6903;49.480;11.102;2022-09-01T02:51:00;98184.13;;;15.91;100.00
13661;BME280;6903;49.480;11.102;2022-09-01T02:53:29;98183.03;;;15.84;100.00
13661;BME280;6903;49.480;11.102;2022-09-01T02:55:56;98178.47;;;15.77;100.00
13661;BME280;6903;49.480;11.102;2022-09-01T02:58:29;98174.41;;;15.73;100.00
13661;BME280;6903;49.480;11.102;2022-09-01T03:00:57;98185.06;;;15.73;100.00
13661;BME280;6903;49.480;11.102;2022-09-01T03:03:24;98177.53;;;15.68;100.00
13661;BME280;6903;49.480;11.102;2022-09-01T03:05:52;98177.66;;;15.67;100.00
13661;BME280;6903;49.480;11.102;2022-09-01T03:08:23;98179.78;;;15.63;100.00
13661;BME280;6903;49.480;11.102;2022-09-01T03:10:50;98177.44;;;15.60;100.00
13661;BME280;6903;49.480;11.102;2022-09-01T03:13:21;98165.03;;;15.51;100.00
13661;BME280;6903;49.480;11.102;2022-09-01T03:15:48;98172.00;;;15.52;100.00
13661;BME280;6903;49.480;11.102;2022-09-01T03:18:14;98170.25;;;15.43;100.00
13661;BME280;6903;49.480;11.102;2022-09-01T03:20:42;98171.06;;;15.43;100.00
13661;BME280;6903;49.480;11.102;2022-09-01T03:23:10;98171.63;;;15.37;100.00
13661;BME280;6903;49.480;11.102;2022-09-01T03:25:39;98171.91;;;15.34;100.00
13661;BME280;6903;49.480;11.102;2022-09-01T03:28:05;98174.03;;;15.31;100.00
13661;BME280;6903;49.480;11.102;2022-09-01T03:30:33;98175.16;;;15.28;100.00
13661;BME280;6903;49.480;11.102;2022-09-01T03:33:01;98178.78;;;15.27;100.00
13661;BME280;6903;49.480;11.102;2022-09-01T03:35:27;98174.63;;;15.25;100.00
13661;BME280;6903;49.480;11.102;2022-09-01T03:37:54;98178.22;;;15.24;100.00
13661;BME280;6903;49.480;11.102;2022-09-01T03:40:24;98175.06;;;15.20;100.00
13661;BME280;6903;49.480;11.102;2022-09-01T03:42:52;98175.19;;;15.19;100.00
13661;BME280;6903;49.480;11.102;2022-09-01T03:45:18;98175.75;;;15.13;100.00
13661;BME280;6903;49.480;11.102;2022-09-01T03:47:44;98175.22;;;15.09;100.00
13661;BME280;6903;49.480;11.102;2022-09-01T03:50:15;98177.19;;;15.07;100.00
13661;BME280;6903;49.480;11.102;2022-09-01T03:52:53;98170.47;;;15.03;100.00
13661;BME280;6903;49.480;11.102;2022-09-01T03:55:22;98172.56;;;15.00;100.00
13661;BME280;6903;49.480;11.102;2022-09-01T03:57:58;98172.72;;;14.98;100.00
13661;BME280;6903;49.480;11.102;2022-09-01T04:00:26;98170.22;;;14.97;100.00
13661;BME280;6903;49.480;11.102;2022-09-01T04:02:57;98176.66;;;14.94;100.00
13661;BME280;6903;49.480;11.102;2022-09-01T04:05:27;98179.59;;;14.91;100.00
13661;BME280;6903;49.480;11.102;2022-09-01T04:07:57;98177.25;;;14.88;100.00
13661;BME280;6903;49.480;11.102;2022-09-01T04:10:24;98174.03;;;14.85;100.00
13661;BME280;6903;49.480;11.102;2022-09-01T04:12:49;98177.50;;;14.85;100.00
13661;BME280;6903;49.480;11.102;2022-09-01T04:15:16;98175.97;;;14.83;100.00
13661;BME280;6903;49.480;11.102;2022-09-01T04:17:45;98182.69;;;14.77;100.00
13661;BME280;6903;49.480;11.102;2022-09-01T04:20:55;98175.56;;;14.78;100.00
13661;BME280;6903;49.480;11.102;2022-09-01T04:23:24;98160.78;;;14.75;100.00
13661;BME280;6903;49.480;11.102;2022-09-01T04:25:59;98164.41;;;14.74;100.00
13661;BME280;6903;49.480;11.102;2022-09-01T04:28:33;98166.34;;;14.72;100.00
13661;BME280;6903;49.480;11.102;2022-09-01T04:31:03;98176.97;;;14.72;100.00
13661;BME280;6903;49.480;11.102;2022-09-01T04:33:33;98172.50;;;14.73;100.00
13661;BME280;6903;49.480;11.102;2022-09-01T04:36:05;98180.91;;;14.68;100.00
13661;BME280;6903;49.480;11.102;2022-09-01T04:38:30;98180.91;;;14.68;100.00
13661;BME280;6903;49.480;11.102;2022-09-01T04:41:05;98176.84;;;14.64;100.00
13661;BME280;6903;49.480;11.102;2022-09-01T04:43:32;98186.50;;;14.65;100.00
13661;BME280;6903;49.480;11.102;2022-09-01T04:45:57;98193.59;;;14.65;100.00
13661;BME280;6903;49.480;11.102;2022-09-01T04:48:23;98187.34;;;14.66;100.00
13661;BME280;6903;49.480;11.102;2022-09-01T04:50:50;98191.50;;;14.68;100.00
13661;BME280;6903;49.480;11.102;2022-09-01T04:53:16;98189.16;;;14.65;100.00
13661;BME280;6903;49.480;11.102;2022-09-01T04:55:43;98190.53;;;14.69;100.00
13661;BME280;6903;49.480;11.102;2022-09-01T04:58:12;98194.59;;;14.73;100.00
13661;BME280;6903;49.480;11.102;2022-09-01T05:00:38;98197.94;;;14.75;100.00
13661;BME280;6903;49.480;11.102;2022-09-01T05:03:05;98190.63;;;14.87;100.00
13661;BME280;6903;49.480;11.102;2022-09-01T05:05:40;98194.53;;;15.02;100.00
13661;BME280;6903;49.480;11.102;2022-09-01T05:08:09;98197.81;;;15.23;100.00
13661;BME280;6903;49.480;11.102;2022-09-01T05:10:40;98201.13;;;15.44;100.00
13661;BME280;6903;49.480;11.102;2022-09-01T05:13:07;98189.88;;;15.59;100.00
13661;BME280;6903;49.480;11.102;2022-09-01T05:15:35;98205.44;;;15.82;100.00
13661;BME280;6903;49.480;11.102;2022-09-01T05:18:01;98202.38;;;16.04;100.00
13661;BME280;6903;49.480;11.102;2022-09-01T05:20:36;98206.06;;;16.38;100.00
13661;BME280;6903;49.480;11.102;2022-09-01T05:23:02;98202.72;;;16.71;100.00
13661;BME280;6903;49.480;11.102;2022-09-01T05:25:29;98200.31;;;17.03;100.00
13661;BME280;6903;49.480;11.102;2022-09-01T05:27:54;98194.81;;;17.30;100.00
13661;BME280;6903;49.480;11.102;2022-09-01T05:30:21;98203.44;;;17.24;100.00
13661;BME280;6903;49.480;11.102;2022-09-01T05:32:46;98199.53;;;17.11;100.00
13661;BME280;6903;49.480;11.102;2022-09-01T05:35:13;98194.09;;;16.77;100.00
13661;BME280;6903;49.480;11.102;2022-09-01T05:37:38;98189.47;;;16.44;100.00
13661;BME280;6903;49.480;11.102;2022-09-01T05:40:06;98197.75;;;16.23;100.00
13661;BME280;6903;49.480;11.102;2022-09-01T05:42:34;98192.44;;;16.06;100.00
13661;BME280;6903;49.480;11.102;2022-09-01T05:45:01;98196.34;;;16.02;100.00
13661;BME280;6903;49.480;11.102;2022-09-01T05:47:27;98199.88;;;16.02;100.00
13661;BME280;6903;49.480;11.102;2022-09-01T05:49:52;98192.81;;;16.11;100.00
13661;BME280;6903;49.480;11.102;2022-09-01T05:52:19;98195.97;;;16.59;100.00
13661;BME280;6903;49.480;11.102;2022-09-01T05:54:49;98199.81;;;17.33;100.00
13661;BME280;6903;49.480;11.102;2022-09-01T05:57:16;98198.00;;;18.01;100.00
13661;BME280;6903;49.480;11.102;2022-09-01T05:59:41;98200.41;;;18.20;100.00
13661;BME280;6903;49.480;11.102;2022-09-01T06:02:07;98192.94;;;18.40;100.00
13661;BME280;6903;49.480;11.102;2022-09-01T06:04:33;98199.97;;;18.41;100.00
13661;BME280;6903;49.480;11.102;2022-09-01T06:06:59;98198.63;;;18.53;100.00
13661;BME280;6903;49.480;11.102;2022-09-01T06:09:25;98201.50;;;18.75;100.00
13661;BME280;6903;49.480;11.102;2022-09-01T06:11:51;98209.66;;;18.66;100.00
13661;BME280;6903;49.480;11.102;2022-09-01T06:14:17;98205.47;;;18.39;100.00
13661;BME280;6903;49.480;11.102;2022-09-01T06:16:43;98202.41;;;18.18;100.00
13661;BME280;6903;49.480;11.102;2022-09-01T06:19:09;98199.31;;;17.89;100.00
13661;BME280;6903;49.480;11.102;2022-09-01T06:21:37;98198.28;;;17.48;100.00
13661;BME280;6903;49.480;11.102;2022-09-01T06:24:03;98210.84;;;17.38;100.00
13661;BME280;6903;49.480;11.102;2022-09-01T06:26:32;98205.22;;;17.41;100.00
13661;BME280;6903;49.480;11.102;2022-09-01T06:29:01;98207.31;;;17.55;100.00
13661;BME280;6903;49.480;11.102;2022-09-01T06:31:31;98212.41;;;17.74;100.00
13661;BME280;6903;49.480;11.102;2022-09-01T06:33:59;98212.16;;;17.93;100.00
13661;BME280;6903;49.480;11.102;2022-09-01T06:36:25;98217.31;;;17.95;100.00
13661;BME280;6903;49.480;11.102;2022-09-01T06:38:51;98212.50;;;17.98;100.00
13661;BME280;6903;49.480;11.102;2022-09-01T06:41:18;98209.66;;;18.50;100.00
13661;BME280;6903;49.480;11.102;2022-09-01T06:43:48;98220.69;;;18.95;100.00
13661;BME280;6903;49.480;11.102;2022-09-01T06:46:15;98207.50;;;18.77;100.00
13661;BME280;6903;49.480;11.102;2022-09-01T06:48:41;98213.69;;;18.78;100.00
13661;BME280;6903;49.480;11.102;2022-09-01T06:51:10;98205.50;;;18.71;100.00
13661;BME280;6903;49.480;11.102;2022-09-01T06:53:38;98213.69;;;18.78;100.00
13661;BME280;6903;49.480;11.102;2022-09-01T06:56:03;98209.34;;;19.01;100.00
13661;BME280;6903;49.480;11.102;2022-09-01T06:58:28;98209.59;;;19.62;100.00
13661;BME280;6903;49.480;11.102;2022-09-01T07:00:55;98217.94;;;20.44;100.00
13661;BME280;6903;49.480;11.102;2022-09-01T07:03:20;98208.28;;;21.26;100.00
13661;BME280;6903;49.480;11.102;2022-09-01T07:05:47;98220.88;;;21.02;100.00
13661;BME280;6903;49.480;11.102;2022-09-01T07:08:16;98213.44;;;20.14;100.00
13661;BME280;6903;49.480;11.102;2022-09-01T07:10:49;98212.22;;;19.70;100.00
13661;BME280;6903;49.480;11.102;2022-09-01T07:13:17;98217.47;;;19.47;100.00
13661;BME280;6903;49.480;11.102;2022-09-01T07:15:48;98222.72;;;19.41;100.00
13661;BME280;6903;49.480;11.102;2022-09-01T07:18:18;98226.66;;;19.53;100.00
13661;BME280;6903;49.480;11.102;2022-09-01T07:20:45;98228.16;;;19.63;100.00
13661;BME280;6903;49.480;11.102;2022-09-01T07:23:14;98225.78;;;20.07;100.00
13661;BME280;6903;49.480;11.102;2022-09-01T07:25:43;98234.44;;;20.25;100.00
13661;BME280;6903;49.480;11.102;2022-09-01T07:28:10;98220.38;;;20.54;100.00
13661;BME280;6903;49.480;11.102;2022-09-01T07:30:43;98232.38;;;20.66;100.00
13661;BME280;6903;49.480;11.102;2022-09-01T07:33:11;98231.28;;;20.52;100.00
13661;BME280;6903;49.480;11.102;2022-09-01T07:35:39;98234.25;;;20.57;100.00
13661;BME280;6903;49.480;11.102;2022-09-01T07:38:05;98228.09;;;20.57;100.00
13661;BME280;6903;49.480;11.102;2022-09-01T07:40:35;98231.53;;;20.65;100.00
13661;BME280;6903;49.480;11.102;2022-09-01T07:43:04;98234.16;;;20.73;100.00
13661;BME280;6903;49.480;11.102;2022-09-01T07:45:34;98238.22;;;20.92;100.00
13661;BME280;6903;49.480;11.102;2022-09-01T07:48:00;98231.91;;;21.08;100.00
13661;BME280;6903;49.480;11.102;2022-09-01T07:50:33;98242.31;;;21.02;100.00
13661;BME280;6903;49.480;11.102;2022-09-01T07:53:00;98236.47;;;20.99;100.00
13661;BME280;6903;49.480;11.102;2022-09-01T07:55:26;98230.63;;;21.55;100.00
13661;BME280;6903;49.480;11.102;2022-09-01T07:57:52;98225.88;;;21.72;100.00
13661;BME280;6903;49.480;11.102;2022-09-01T08:00:18;98228.56;;;22.15;100.00
13661;BME280;6903;49.480;11.102;2022-09-01T08:02:46;98239.03;;;22.25;100.00
13661;BME280;6903;49.480;11.102;2022-09-01T08:05:14;98229.97;;;22.47;100.00
13661;BME280;6903;49.480;11.102;2022-09-01T08:07:42;98230.03;;;22.68;100.00
13661;BME280;6903;49.480;11.102;2022-09-01T08:10:08;98226.75;;;22.87;100.00
13661;BME280;6903;49.480;11.102;2022-09-01T08:12:34;98230.22;;;23.30;100.00
13661;BME280;6903;49.480;11.102;2022-09-01T08:15:03;98234.19;;;23.61;100.00
13661;BME280;6903;49.480;11.102;2022-09-01T08:17:29;98239.25;;;23.43;100.00
13661;BME280;6903;49.480;11.102;2022-09-01T08:19:55;98230.22;;;22.88;100.00
13661;BME280;6903;49.480;11.102;2022-09-01T08:22:20;98228.88;;;22.56;100.00
13661;BME280;6903;49.480;11.102;2022-09-01T08:24:48;98231.00;;;22.46;100.00
13661;BME280;6903;49.480;11.102;2022-09-01T08:27:13;98232.78;;;22.54;100.00
13661;BME280;6903;49.480;11.102;2022-09-01T08:29:39;98229.81;;;22.63;100.00
13661;BME280;6903;49.480;11.102;2022-09-01T08:32:04;98231.06;;;22.88;100.00
13661;BME280;6903;49.480;11.102;2022-09-01T08:34:31;98233.38;;;23.12;100.00
13661;BME280;6903;49.480;11.102;2022-09-01T08:36:56;98236.97;;;23.40;100.00
13661;BME280;6903;49.480;11.102;2022-09-01T08:39:22;98228.03;;;23.19;100.00
13661;BME280;6903;49.480;11.102;2022-09-01T08:44:40;98231.53;;;22.92;100.00
13661;BME280;6903;49.480;11.102;2022-09-01T08:47:11;98240.13;;;22.81;100.00
13661;BME280;6903;49.480;11.102;2022-09-01T08:49:39;98233.59;;;22.54;100.00
13661;BME280;6903;49.480;11.102;2022-09-01T08:52:33;98237.47;;;22.66;100.00
13661;BME280;6903;49.480;11.102;2022-09-01T08:55:13;98250.59;;;22.76;100.00
13661;BME280;6903;49.480;11.102;2022-09-01T08:57:45;98233.69;;;23.03;100.00
13661;BME280;6903;49.480;11.102;2022-09-01T09:00:15;98242.97;;;23.42;93.68
13661;BME280;6903;49.480;11.102;2022-09-01T09:08:01;98247.78;;;23.81;89.70
13661;BME280;6903;49.480;11.102;2022-09-01T09:13:20;98254.66;;;23.56;88.48
13661;BME280;6903;49.480;11.102;2022-09-01T09:15:50;98239.81;;;23.39;86.82
13661;BME280;6903;49.480;11.102;2022-09-01T09:18:30;98231.53;;;23.34;87.68
13661;BME280;6903;49.480;11.102;2022-09-01T09:21:05;98246.47;;;23.70;86.51
13661;BME280;6903;49.480;11.102;2022-09-01T09:23:35;98234.63;;;23.37;89.51
13661;BME280;6903;49.480;11.102;2022-09-01T09:26:03;98258.28;;;23.21;90.73
13661;BME280;6903;49.480;11.102;2022-09-01T09:28:29;98244.94;;;23.27;90.32
13661;BME280;6903;49.480;11.102;2022-09-01T09:31:35;98236.66;;;23.29;86.44
13661;BME280;6903;49.480;11.102;2022-09-01T09:33:59;98242.66;;;23.10;87.88
13661;BME280;6903;49.480;11.102;2022-09-01T09:36:34;98233.13;;;23.28;87.62
13661;BME280;6903;49.480;11.102;2022-09-01T09:39:10;98234.53;;;23.52;86.20
13661;BME280;6903;49.480;11.102;2022-09-01T09:41:37;98245.69;;;23.76;84.61
13661;BME280;6903;49.480;11.102;2022-09-01T09:44:18;98238.56;;;23.97;80.80
13661;BME280;6903;49.480;11.102;2022-09-01T09:46:46;98232.91;;;24.19;81.29
13661;BME280;6903;49.480;11.102;2022-09-01T09:49:23;98230.91;;;24.41;76.77
13661;BME280;6903;49.480;11.102;2022-09-01T09:51:53;98239.47;;;24.10;77.76
13661;BME280;6903;49.480;11.102;2022-09-01T09:54:30;98237.72;;;24.30;79.01
13661;BME280;6903;49.480;11.102;2022-09-01T09:59:34;98239.81;;;24.95;74.27
13661;BME280;6903;49.480;11.102;2022-09-01T10:02:16;98237.63;;;24.58;74.75
13661;BME280;6903;49.480;11.102;2022-09-01T10:04:47;98233.31;;;24.70;73.00
13661;BME280;6903;49.480;11.102;2022-09-01T10:07:33;98232.97;;;25.05;69.44
13661;BME280;6903;49.480;11.102;2022-09-01T10:10:03;98223.22;;;25.24;68.82
13661;BME280;6903;49.480;11.102;2022-09-01T10:12:29;98218.22;;;25.01;68.21
13661;BME280;6903;49.480;11.102;2022-09-01T10:15:00;98231.47;;;24.77;69.07
13661;BME280;6903;49.480;11.102;2022-09-01T10:17:33;98222.34;;;24.18;70.81
13661;BME280;6903;49.480;11.102;2022-09-01T10:20:20;98226.13;;;24.36;70.22
13661;BME280;6903;49.480;11.102;2022-09-01T10:22:47;98219.97;;;24.55;70.31
13661;BME280;6903;49.480;11.102;2022-09-01T10:25:17;98223.94;;;24.66;69.60
13661;BME280;6903;49.480;11.102;2022-09-01T10:27:47;98214.78;;;24.54;70.03
13661;BME280;6903;49.480;11.102;2022-09-01T10:30:16;98218.81;;;24.71;70.53
13661;BME280;6903;49.480;11.102;2022-09-01T10:32:45;98214.28;;;25.04;67.97
13661;BME280;6903;49.480;11.102;2022-09-01T10:35:15;98219.06;;;25.28;65.72
13661;BME280;6903;49.480;11.102;2022-09-01T10:37:43;98223.81;;;25.26;65.45
13661;BME280;6903;49.480;11.102;2022-09-01T10:43:26;98221.56;;;25.36;64.37
13661;BME280;6903;49.480;11.102;2022-09-01T10:45:52;98209.50;;;25.06;65.43
13661;BME280;6903;49.480;11.102;2022-09-01T10:50:51;98219.84;;;24.83;65.48
13661;BME280;6903;49.480;11.102;2022-09-01T10:56:17;98214.88;;;24.86;64.15
13661;BME280;6903;49.480;11.102;2022-09-01T11:04:16;98203.50;;;25.24;60.26
13661;BME280;6903;49.480;11.102;2022-09-01T11:07:00;98204.72;;;25.60;58.87
13661;BME280;6903;49.480;11.102;2022-09-01T11:09:35;98205.56;;;25.67;58.03
13661;BME280;6903;49.480;11.102;2022-09-01T11:15:00;98202.63;;;25.82;57.21
13661;BME280;6903;49.480;11.102;2022-09-01T11:17:29;98204.75;;;25.47;58.67
13661;BME280;6903;49.480;11.102;2022-09-01T11:20:19;98207.84;;;25.18;58.94
13661;BME280;6903;49.480;11.102;2022-09-01T11:25:45;98202.34;;;24.59;63.67
13661;BME280;6903;49.480;11.102;2022-09-01T11:30:44;98202.03;;;24.22;66.83
13661;BME280;6903;49.480;11.102;2022-09-01T11:35:44;98202.44;;;24.19;68.35
13661;BME280;6903;49.480;11.102;2022-09-01T11:38:11;98186.72;;;24.29;68.18
13661;BME280;6903;49.480;11.102;2022-09-01T11:40:39;98201.06;;;24.49;67.82
13661;BME280;6903;49.480;11.102;2022-09-01T11:43:14;98199.13;;;24.23;70.32
13661;BME280;6903;49.480;11.102;2022-09-01T11:45:52;98201.72;;;24.04;71.90
13661;BME280;6903;49.480;11.102;2022-09-01T11:48:20;98198.16;;;23.97;73.63
13661;BME280;6903;49.480;11.102;2022-09-01T11:50:56;98205.22;;;23.98;74.18
13661;BME280;6903;49.480;11.102;2022-09-01T11:53:24;98193.34;;;23.51;75.84
13661;BME280;6903;49.480;11.102;2022-09-01T11:55:51;98195.53;;;23.41;76.54
13661;BME280;6903;49.480;11.102;2022-09-01T12:01:37;98195.91;;;23.32;73.18
13661;BME280;6903;49.480;11.102;2022-09-01T12:04:21;98190.63;;;23.24;72.85
13661;BME280;6903;49.480;11.102;2022-09-01T12:09:17;98194.44;;;23.63;72.47
13661;BME280;6903;49.480;11.102;2022-09-01T12:11:43;98187.31;;;23.49;73.87
13661;BME280;6903;49.480;11.102;2022-09-01T12:14:10;98190.50;;;23.59;73.93
13661;BME280;6903;49.480;11.102;2022-09-01T12:16:37;98189.28;;;23.68;75.44
13661;BME280;6903;49.480;11.102;2022-09-01T12:19:05;98185.44;;;23.77;76.13
13661;BME280;6903;49.480;11.102;2022-09-01T12:21:32;98186.31;;;23.91;75.88
13661;BME280;6903;49.480;11.102;2022-09-01T12:24:24;98184.63;;;24.31;74.33
13661;BME280;6903;49.480;11.102;2022-09-01T12:26:52;98181.03;;;24.11;73.49
13661;BME280;6903;49.480;11.102;2022-09-01T12:29:19;98170.72;;;24.21;72.59
13661;BME280;6903;49.480;11.102;2022-09-01T12:31:47;98176.69;;;24.10;71.89
13661;BME280;6903;49.480;11.102;2022-09-01T12:34:39;98177.63;;;23.96;71.25
13661;BME280;6903;49.480;11.102;2022-09-01T12:37:24;98178.81;;;24.21;71.45
13661;BME280;6903;49.480;11.102;2022-09-01T12:39:54;98176.94;;;24.28;71.61
13661;BME280;6903;49.480;11.102;2022-09-01T12:42:29;98175.53;;;24.32;69.71
13661;BME280;6903;49.480;11.102;2022-09-01T12:49:59;98170.66;;;24.01;72.06
13661;BME280;6903;49.480;11.102;2022-09-01T12:52:26;98170.75;;;24.34;70.89
13661;BME280;6903;49.480;11.102;2022-09-01T12:55:07;98165.69;;;24.84;68.75
13661;BME280;6903;49.480;11.102;2022-09-01T12:57:36;98163.63;;;25.32;66.42
13661;BME280;6903;49.480;11.102;2022-09-01T13:02:38;98164.03;;;25.49;62.62
13661;BME280;6903;49.480;11.102;2022-09-01T13:05:26;98164.44;;;25.39;60.53
13661;BME280;6903;49.480;11.102;2022-09-01T13:07:58;98167.97;;;25.20;59.87
13661;BME280;6903;49.480;11.102;2022-09-01T13:10:25;98159.66;;;24.89;60.45
13661;BME280;6903;49.480;11.102;2022-09-01T13:12:53;98163.41;;;25.27;57.63
13661;BME280;6903;49.480;11.102;2022-09-01T13:15:20;98159.66;;;25.28;57.31
13661;BME280;6903;49.480;11.102;2022-09-01T13:17:46;98154.06;;;25.30;57.97
13661;BME280;6903;49.480;11.102;2022-09-01T13:20:12;98154.69;;;25.45;58.23
13661;BME280;6903;49.480;11.102;2022-09-01T13:22:38;98148.84;;;25.54;57.39
13661;BME280;6903;49.480;11.102;2022-09-01T13:25:05;98147.34;;;25.65;55.87
13661;BME280;6903;49.480;11.102;2022-09-01T13:27:31;98148.34;;;25.83;55.20
13661;BME280;6903;49.480;11.102;2022-09-01T13:29:56;98139.13;;;26.10;54.89
13661;BME280;6903;49.480;11.102;2022-09-01T13:32:23;98144.16;;;26.00;54.49
13661;BME280;6903;49.480;11.102;2022-09-01T13:34:50;98143.22;;;25.62;55.73
13661;BME280;6903;49.480;11.102;2022-09-01T13:37:16;98144.75;;;25.39;56.08
13661;BME280;6903;49.480;11.102;2022-09-01T13:39:41;98144.94;;;25.04;55.47
13661;BME280;6903;49.480;11.102;2022-09-01T13:42:07;98142.25;;;24.85;55.35
13661;BME280;6903;49.480;11.102;2022-09-01T13:44:33;98137.06;;;24.83;55.78
13661;BME280;6903;49.480;11.102;2022-09-01T13:46:58;98145.16;;;24.70;56.38
13661;BME280;6903;49.480;11.102;2022-09-01T13:49:23;98144.31;;;24.70;56.83
13661;BME280;6903;49.480;11.102;2022-09-01T13:51:50;98141.78;;;24.62;55.58
13661;BME280;6903;49.480;11.102;2022-09-01T13:54:16;98127.28;;;24.63;55.21
13661;BME280;6903;49.480;11.102;2022-09-01T13:56:41;98133.75;;;24.81;54.88